sensor_id;sensor_type;location;lat;lon;timestamp;P1;durP1;ratioP1;P2;durP2;ratioP2
4428;SDS011;2227;47.810;8.810;2023-11-22T04:48:52;875.88;;;641.70;;
4428;SDS011;2227;47.810;8.810;2023-11-22T04:51:19;873.97;;;638.33;;
4428;SDS011;2227;47.810;8.810;2023-11-22T04:53:46;872.58;;;628.50;;
4428;SDS011;2227;47.810;8.810;2023-11-22T04:56:12;871.88;;;627.83;;
4428;SDS011;2227;47.810;8.810;2023-11-22T04:58:39;873.10;;;636.80;;
4428;SDS011;2227;47.810;8.810;2023-11-22T05:01:06;873.35;;;632.38;;
4428;SDS011;2227;47.810;8.810;2023-11-22T05:03:35;872.15;;;629.55;;
4428;SDS011;2227;47.810;8.810;2023-11-22T05:06:04;871.47;;;629.88;;
4428;SDS011;2227;47.810;8.810;2023-11-22T05:08:30;871.38;;;631.20;;
4428;SDS011;2227;47.810;8.810;2023-11-22T05:10:57;871.58;;;629.47;;
4428;SDS011;2227;47.810;8.810;2023-11-22T05:13:25;870.70;;;628.73;;
4428;SDS011;2227;47.810;8.810;2023-11-22T05:15:51;871.33;;;630.10;;
4428;SDS011;2227;47.810;8.810;2023-11-22T05:18:19;873.35;;;630.90;;
4428;SDS011;2227;47.810;8.810;2023-11-22T05:20:46;871.60;;;624.83;;
4428;SDS011;2227;47.810;8.810;2023-11-22T05:23:14;872.45;;;630.92;;
4428;SDS011;2227;47.810;8.810;2023-11-22T05:25:41;873.78;;;629.10;;
4428;SDS011;2227;47.810;8.810;2023-11-22T05:28:08;872.70;;;630.25;;
4428;SDS011;2227;47.810;8.810;2023-11-22T05:30:35;871.00;;;629.90;;
4428;SDS011;2227;47.810;8.810;2023-11-22T05:33:01;874.15;;;634.25;;
4428;SDS011;2227;47.810;8.810;2023-11-22T05:35:28;872.97;;;630.60;;
4428;SDS011;2227;47.810;8.810;2023-11-22T05:37:55;873.75;;;635.00;;
4428;SDS011;2227;47.810;8.810;2023-11-22T05:40:23;874.38;;;631.35;;
4428;SDS011;2227;47.810;8.810;2023-11-22T05:42:50;871.97;;;625.00;;
4428;SDS011;2227;47.810;8.810;2023-11-22T05:45:17;874.47;;;631.60;;
4428;SDS011;2227;47.810;8.810;2023-11-22T05:47:44;873.45;;;626.30;;
4428;SDS011;2227;47.810;8.810;2023-11-22T05:50:10;873.80;;;624.72;;
4428;SDS011;2227;47.810;8.810;2023-11-22T05:52:38;875.25;;;624.88;;
4428;SDS011;2227;47.810;8.810;2023-11-22T05:55:08;877.40;;;611.85;;
4428;SDS011;2227;47.810;8.810;2023-11-22T05:57:35;876.72;;;619.92;;
4428;SDS011;2227;47.810;8.810;2023-11-22T06:00:02;878.60;;;615.10;;
4428;SDS011;2227;47.810;8.810;2023-11-22T06:02:29;878.45;;;612.40;;
4428;SDS011;2227;47.810;8.810;2023-11-22T06:04:56;879.00;;;614.58;;
4428;SDS011;2227;47.810;8.810;2023-11-22T06:07:23;878.42;;;613.33;;
4428;SDS011;2227;47.810;8.810;2023-11-22T06:09:50;879.55;;;613.28;;
4428;SDS011;2227;47.810;8.810;2023-11-22T06:12:16;878.30;;;609.90;;
4428;SDS011;2227;47.810;8.810;2023-11-22T06:14:43;878.42;;;611.65;;
4428;SDS011;2227;47.810;8.810;2023-11-22T06:17:10;878.58;;;605.75;;
4428;SDS011;2227;47.810;8.810;2023-11-22T06:19:37;879.10;;;609.63;;
4428;SDS011;2227;47.810;8.810;2023-11-22T06:22:03;879.50;;;611.20;;
4428;SDS011;2227;47.810;8.810;2023-11-22T06:24:30;878.22;;;608.72;;
4428;SDS011;2227;47.810;8.810;2023-11-22T06:26:59;878.03;;;607.13;;
4428;SDS011;2227;47.810;8.810;2023-11-22T06:29:26;877.17;;;604.08;;
4428;SDS011;2227;47.810;8.810;2023-11-22T06:31:53;877.80;;;606.83;;
4428;SDS011;2227;47.810;8.810;2023-11-22T06:34:19;877.25;;;605.40;;
4428;SDS011;2227;47.810;8.810;2023-11-22T06:36:46;877.20;;;603.40;;
4428;SDS011;2227;47.810;8.810;2023-11-22T06:39:13;876.55;;;602.03;;
4428;SDS011;2227;47.810;8.810;2023-11-22T06:41:41;877.73;;;601.63;;
4428;SDS011;2227;47.810;8.810;2023-11-22T06:44:08;875.35;;;598.65;;
4428;SDS011;2227;47.810;8.810;2023-11-22T06:46:36;876.35;;;598.10;;
4428;SDS011;2227;47.810;8.810;2023-11-22T06:51:31;875.78;;;599.85;;
4428;SDS011;2227;47.810;8.810;2023-11-22T06:53:58;875.97;;;600.07;;
4428;SDS011;2227;47.810;8.810;2023-11-22T06:56:27;876.60;;;599.20;;
4428;SDS011;2227;47.810;8.810;2023-11-22T06:58:54;875.15;;;598.03;;
4428;SDS011;2227;47.810;8.810;2023-11-22T07:01:23;875.10;;;598.60;;
4428;SDS011;2227;47.810;8.810;2023-11-22T07:03:54;874.75;;;597.72;;
4428;SDS011;2227;47.810;8.810;2023-11-22T07:06:21;873.47;;;596.50;;
4428;SDS011;2227;47.810;8.810;2023-11-22T07:08:56;874.85;;;596.63;;
4428;SDS011;2227;47.810;8.810;2023-11-22T07:11:24;874.38;;;593.08;;
4428;SDS011;2227;47.810;8.810;2023-11-22T07:13:52;875.65;;;596.55;;
4428;SDS011;2227;47.810;8.810;2023-11-22T07:16:19;874.88;;;591.55;;
4428;SDS011;2227;47.810;8.810;2023-11-22T07:18:47;875.00;;;596.05;;
4428;SDS011;2227;47.810;8.810;2023-11-22T07:21:13;874.50;;;592.72;;
4428;SDS011;2227;47.810;8.810;2023-11-22T07:23:40;874.80;;;595.92;;
4428;SDS011;2227;47.810;8.810;2023-11-22T07:26:07;874.70;;;595.35;;
4428;SDS011;2227;47.810;8.810;2023-11-22T07:28:34;876.40;;;604.43;;
4428;SDS011;2227;47.810;8.810;2023-11-22T07:31:06;872.63;;;596.42;;
4428;SDS011;2227;47.810;8.810;2023-11-22T07:33:33;874.50;;;595.15;;
4428;SDS011;2227;47.810;8.810;2023-11-22T07:36:01;874.13;;;597.20;;
4428;SDS011;2227;47.810;8.810;2023-11-22T07:38:29;874.33;;;595.85;;
4428;SDS011;2227;47.810;8.810;2023-11-22T07:40:57;872.67;;;592.63;;
4428;SDS011;2227;47.810;8.810;2023-11-22T07:43:24;874.95;;;600.30;;
4428;SDS011;2227;47.810;8.810;2023-11-22T07:45:51;873.40;;;592.10;;
4428;SDS011;2227;47.810;8.810;2023-11-22T07:48:18;874.20;;;595.60;;
4428;SDS011;2227;47.810;8.810;2023-11-22T07:50:45;874.42;;;597.95;;
4428;SDS011;2227;47.810;8.810;2023-11-22T07:53:15;872.67;;;595.15;;
4428;SDS011;2227;47.810;8.810;2023-11-22T07:55:44;872.60;;;593.53;;
4428;SDS011;2227;47.810;8.810;2023-11-22T07:58:11;873.08;;;595.83;;
4428;SDS011;2227;47.810;8.810;2023-11-22T08:00:37;873.20;;;597.10;;
4428;SDS011;2227;47.810;8.810;2023-11-22T08:03:04;872.60;;;594.50;;
4428;SDS011;2227;47.810;8.810;2023-11-22T08:05:33;872.72;;;596.70;;
4428;SDS011;2227;47.810;8.810;2023-11-22T08:08:06;873.85;;;597.60;;
4428;SDS011;2227;47.810;8.810;2023-11-22T08:10:35;873.50;;;594.97;;
4428;SDS011;2227;47.810;8.810;2023-11-22T08:13:02;873.25;;;599.90;;
4428;SDS011;2227;47.810;8.810;2023-11-22T08:15:29;875.25;;;597.75;;
4428;SDS011;2227;47.810;8.810;2023-11-22T08:17:58;874.22;;;602.95;;
4428;SDS011;2227;47.810;8.810;2023-11-22T08:20:27;871.90;;;593.60;;
4428;SDS011;2227;47.810;8.810;2023-11-22T08:22:54;872.88;;;602.42;;
4428;SDS011;2227;47.810;8.810;2023-11-22T08:25:20;873.80;;;601.85;;
4428;SDS011;2227;47.810;8.810;2023-11-22T08:27:47;873.10;;;598.40;;
4428;SDS011;2227;47.810;8.810;2023-11-22T08:30:14;874.50;;;599.90;;
4428;SDS011;2227;47.810;8.810;2023-11-22T08:32:43;872.63;;;598.00;;
4428;SDS011;2227;47.810;8.810;2023-11-22T08:35:13;872.42;;;598.03;;
4428;SDS011;2227;47.810;8.810;2023-11-22T08:37:41;872.10;;;597.22;;
4428;SDS011;2227;47.810;8.810;2023-11-22T08:40:09;871.90;;;598.30;;
4428;SDS011;2227;47.810;8.810;2023-11-22T08:42:46;872.50;;;600.10;;
4428;SDS011;2227;47.810;8.810;2023-11-22T08:45:14;873.10;;;602.42;;
4428;SDS011;2227;47.810;8.810;2023-11-22T08:47:41;872.20;;;597.90;;
4428;SDS011;2227;47.810;8.810;2023-11-22T08:50:08;871.50;;;597.10;;
4428;SDS011;2227;47.810;8.810;2023-11-22T08:52:38;870.78;;;595.85;;
4428;SDS011;2227;47.810;8.810;2023-11-22T08:55:06;872.08;;;599.78;;
4428;SDS011;2227;47.810;8.810;2023-11-22T08:57:37;872.95;;;601.78;;
4428;SDS011;2227;47.810;8.810;2023-11-22T09:00:04;870.78;;;595.67;;
4428;SDS011;2227;47.810;8.810;2023-11-22T09:02:35;871.37;;;596.70;;
4428;SDS011;2227;47.810;8.810;2023-11-22T09:05:03;871.00;;;589.70;;
4428;SDS011;2227;47.810;8.810;2023-11-22T09:07:32;869.73;;;590.47;;
4428;SDS011;2227;47.810;8.810;2023-11-22T09:10:04;872.38;;;595.00;;
4428;SDS011;2227;47.810;8.810;2023-11-22T09:12:40;870.38;;;596.70;;
4428;SDS011;2227;47.810;8.810;2023-11-22T09:15:08;871.70;;;593.20;;
4428;SDS011;2227;47.810;8.810;2023-11-22T09:17:39;872.60;;;597.83;;
4428;SDS011;2227;47.810;8.810;2023-11-22T09:20:12;872.20;;;596.80;;
4428;SDS011;2227;47.810;8.810;2023-11-22T09:25:21;872.72;;;596.53;;
4428;SDS011;2227;47.810;8.810;2023-11-22T09:27:53;875.35;;;604.03;;
4428;SDS011;2227;47.810;8.810;2023-11-22T09:30:27;872.73;;;595.53;;
4428;SDS011;2227;47.810;8.810;2023-11-22T09:33:09;874.53;;;603.30;;
4428;SDS011;2227;47.810;8.810;2023-11-22T09:35:43;874.85;;;601.47;;
4428;SDS011;2227;47.810;8.810;2023-11-22T09:38:12;875.47;;;603.67;;
4428;SDS011;2227;47.810;8.810;2023-11-22T09:43:12;873.38;;;597.97;;
4428;SDS011;2227;47.810;8.810;2023-11-22T09:45:41;871.33;;;603.20;;
4428;SDS011;2227;47.810;8.810;2023-11-22T09:50:57;871.40;;;597.47;;
4428;SDS011;2227;47.810;8.810;2023-11-22T09:56:27;872.65;;;602.45;;
4428;SDS011;2227;47.810;8.810;2023-11-22T09:58:54;873.15;;;602.25;;
4428;SDS011;2227;47.810;8.810;2023-11-22T10:01:23;873.45;;;603.75;;
4428;SDS011;2227;47.810;8.810;2023-11-22T10:03:50;871.80;;;601.10;;
4428;SDS011;2227;47.810;8.810;2023-11-22T10:06:17;873.63;;;605.17;;
4428;SDS011;2227;47.810;8.810;2023-11-22T10:08:44;872.60;;;599.40;;
4428;SDS011;2227;47.810;8.810;2023-11-22T10:11:17;874.10;;;604.58;;
4428;SDS011;2227;47.810;8.810;2023-11-22T10:13:51;873.80;;;601.47;;
4428;SDS011;2227;47.810;8.810;2023-11-22T10:16:18;874.63;;;608.38;;
4428;SDS011;2227;47.810;8.810;2023-11-22T10:18:47;873.65;;;604.53;;
4428;SDS011;2227;47.810;8.810;2023-11-22T10:21:33;873.60;;;610.13;;
4428;SDS011;2227;47.810;8.810;2023-11-22T10:24:01;871.67;;;601.30;;
4428;SDS011;2227;47.810;8.810;2023-11-22T10:26:30;872.83;;;605.70;;
4428;SDS011;2227;47.810;8.810;2023-11-22T10:28:57;872.42;;;605.80;;
4428;SDS011;2227;47.810;8.810;2023-11-22T10:31:25;874.10;;;607.72;;
4428;SDS011;2227;47.810;8.810;2023-11-22T10:33:53;875.03;;;608.40;;
4428;SDS011;2227;47.810;8.810;2023-11-22T10:36:21;876.63;;;618.20;;
4428;SDS011;2227;47.810;8.810;2023-11-22T10:38:49;875.45;;;604.28;;
4428;SDS011;2227;47.810;8.810;2023-11-22T10:41:19;875.67;;;610.37;;
4428;SDS011;2227;47.810;8.810;2023-11-22T10:43:48;877.35;;;612.45;;
4428;SDS011;2227;47.810;8.810;2023-11-22T10:46:19;877.17;;;610.08;;
4428;SDS011;2227;47.810;8.810;2023-11-22T10:48:48;874.72;;;606.55;;
4428;SDS011;2227;47.810;8.810;2023-11-22T10:51:15;875.00;;;608.70;;
4428;SDS011;2227;47.810;8.810;2023-11-22T10:53:47;873.97;;;604.53;;
4428;SDS011;2227;47.810;8.810;2023-11-22T10:56:16;874.92;;;606.80;;
4428;SDS011;2227;47.810;8.810;2023-11-22T10:58:47;872.00;;;603.75;;
4428;SDS011;2227;47.810;8.810;2023-11-22T11:01:18;873.95;;;605.88;;
4428;SDS011;2227;47.810;8.810;2023-11-22T11:04:33;874.17;;;606.30;;
4428;SDS011;2227;47.810;8.810;2023-11-22T11:06:44;875.17;;;608.67;;
4428;SDS011;2227;47.810;8.810;2023-11-22T11:09:17;874.22;;;606.88;;
4428;SDS011;2227;47.810;8.810;2023-11-22T11:11:47;873.55;;;608.25;;
4428;SDS011;2227;47.810;8.810;2023-11-22T11:14:14;874.55;;;609.88;;
4428;SDS011;2227;47.810;8.810;2023-11-22T11:16:43;873.35;;;607.08;;
4428;SDS011;2227;47.810;8.810;2023-11-22T11:19:15;874.88;;;615.63;;
4428;SDS011;2227;47.810;8.810;2023-11-22T11:21:44;877.03;;;615.73;;
4428;SDS011;2227;47.810;8.810;2023-11-22T11:24:13;873.05;;;605.95;;
4428;SDS011;2227;47.810;8.810;2023-11-22T11:26:41;872.30;;;604.50;;
4428;SDS011;2227;47.810;8.810;2023-11-22T11:29:31;871.90;;;603.50;;
4428;SDS011;2227;47.810;8.810;2023-11-22T11:31:59;872.38;;;604.40;;
4428;SDS011;2227;47.810;8.810;2023-11-22T11:34:29;871.33;;;599.50;;
4428;SDS011;2227;47.810;8.810;2023-11-22T11:36:56;872.95;;;602.85;;
4428;SDS011;2227;47.810;8.810;2023-11-22T11:39:26;878.47;;;605.67;;
4428;SDS011;2227;47.810;8.810;2023-11-22T11:42:10;874.28;;;599.42;;
4428;SDS011;2227;47.810;8.810;2023-11-22T11:47:26;874.35;;;609.40;;
4428;SDS011;2227;47.810;8.810;2023-11-22T11:49:54;873.60;;;601.50;;
4428;SDS011;2227;47.810;8.810;2023-11-22T11:52:22;871.10;;;599.85;;
4428;SDS011;2227;47.810;8.810;2023-11-22T11:54:50;872.58;;;602.40;;
4428;SDS011;2227;47.810;8.810;2023-11-22T11:57:17;868.80;;;595.27;;
4428;SDS011;2227;47.810;8.810;2023-11-22T11:59:44;868.95;;;598.60;;
4428;SDS011;2227;47.810;8.810;2023-11-22T12:02:12;870.07;;;598.47;;
4428;SDS011;2227;47.810;8.810;2023-11-22T12:04:39;871.73;;;596.47;;
4428;SDS011;2227;47.810;8.810;2023-11-22T12:07:07;872.90;;;599.58;;
4428;SDS011;2227;47.810;8.810;2023-11-22T12:09:37;872.08;;;601.15;;
4428;SDS011;2227;47.810;8.810;2023-11-22T12:12:03;870.65;;;594.55;;
4428;SDS011;2227;47.810;8.810;2023-11-22T12:14:31;871.97;;;598.10;;
4428;SDS011;2227;47.810;8.810;2023-11-22T12:16:58;872.33;;;604.25;;
4428;SDS011;2227;47.810;8.810;2023-11-22T12:19:26;871.78;;;599.55;;
4428;SDS011;2227;47.810;8.810;2023-11-22T12:24:21;872.30;;;605.70;;
4428;SDS011;2227;47.810;8.810;2023-11-22T12:26:48;872.38;;;606.85;;
4428;SDS011;2227;47.810;8.810;2023-11-22T12:29:16;872.72;;;604.50;;
4428;SDS011;2227;47.810;8.810;2023-11-22T12:31:50;871.78;;;597.25;;
4428;SDS011;2227;47.810;8.810;2023-11-22T12:34:19;871.20;;;598.37;;
4428;SDS011;2227;47.810;8.810;2023-11-22T12:36:48;868.23;;;591.93;;
4428;SDS011;2227;47.810;8.810;2023-11-22T12:39:16;870.13;;;595.08;;
4428;SDS011;2227;47.810;8.810;2023-11-22T12:41:50;872.30;;;603.58;;
4428;SDS011;2227;47.810;8.810;2023-11-22T12:44:31;871.80;;;595.38;;
4428;SDS011;2227;47.810;8.810;2023-11-22T12:47:12;871.47;;;602.20;;
4428;SDS011;2227;47.810;8.810;2023-11-22T12:49:45;871.60;;;597.00;;
4428;SDS011;2227;47.810;8.810;2023-11-22T12:52:12;872.10;;;602.70;;
4428;SDS011;2227;47.810;8.810;2023-11-22T12:54:40;871.88;;;605.67;;
4428;SDS011;2227;47.810;8.810;2023-11-22T12:57:10;870.33;;;597.92;;
4428;SDS011;2227;47.810;8.810;2023-11-22T12:59:39;871.10;;;600.60;;
4428;SDS011;2227;47.810;8.810;2023-11-22T13:02:07;869.85;;;592.17;;
4428;SDS011;2227;47.810;8.810;2023-11-22T13:04:34;872.33;;;604.97;;
4428;SDS011;2227;47.810;8.810;2023-11-22T13:07:01;871.10;;;601.13;;
4428;SDS011;2227;47.810;8.810;2023-11-22T13:09:28;872.13;;;600.65;;
4428;SDS011;2227;47.810;8.810;2023-11-22T13:11:56;873.37;;;600.60;;
4428;SDS011;2227;47.810;8.810;2023-11-22T13:14:24;871.85;;;595.75;;
4428;SDS011;2227;47.810;8.810;2023-11-22T13:16:52;872.38;;;599.67;;
4428;SDS011;2227;47.810;8.810;2023-11-22T13:19:22;872.28;;;595.05;;
4428;SDS011;2227;47.810;8.810;2023-11-22T13:21:49;874.40;;;600.33;;
4428;SDS011;2227;47.810;8.810;2023-11-22T13:24:15;873.70;;;593.03;;
4428;SDS011;2227;47.810;8.810;2023-11-22T13:26:44;872.25;;;592.78;;
4428;SDS011;2227;47.810;8.810;2023-11-22T13:29:11;871.25;;;589.70;;
4428;SDS011;2227;47.810;8.810;2023-11-22T13:31:37;869.60;;;589.00;;
4428;SDS011;2227;47.810;8.810;2023-11-22T13:34:05;869.33;;;585.40;;
4428;SDS011;2227;47.810;8.810;2023-11-22T13:36:32;871.35;;;596.00;;
4428;SDS011;2227;47.810;8.810;2023-11-22T13:38:59;869.78;;;586.33;;
4428;SDS011;2227;47.810;8.810;2023-11-22T13:41:25;872.60;;;597.92;;
4428;SDS011;2227;47.810;8.810;2023-11-22T13:43:52;870.40;;;587.78;;
4428;SDS011;2227;47.810;8.810;2023-11-22T13:46:19;870.93;;;594.43;;
4428;SDS011;2227;47.810;8.810;2023-11-22T13:48:47;869.70;;;586.63;;
4428;SDS011;2227;47.810;8.810;2023-11-22T13:51:13;870.35;;;586.28;;
4428;SDS011;2227;47.810;8.810;2023-11-22T13:53:40;872.97;;;598.33;;
4428;SDS011;2227;47.810;8.810;2023-11-22T13:56:11;869.27;;;588.33;;
4428;SDS011;2227;47.810;8.810;2023-11-22T13:58:40;869.30;;;586.60;;
4428;SDS011;2227;47.810;8.810;2023-11-22T14:01:07;869.22;;;591.60;;
4428;SDS011;2227;47.810;8.810;2023-11-22T14:03:38;868.50;;;590.40;;
4428;SDS011;2227;47.810;8.810;2023-11-22T14:06:06;870.47;;;596.33;;
4428;SDS011;2227;47.810;8.810;2023-11-22T14:08:33;870.55;;;591.72;;
4428;SDS011;2227;47.810;8.810;2023-11-22T14:11:00;869.30;;;584.33;;
4428;SDS011;2227;47.810;8.810;2023-11-22T14:13:27;868.88;;;588.90;;
4428;SDS011;2227;47.810;8.810;2023-11-22T14:15:54;869.58;;;587.13;;
4428;SDS011;2227;47.810;8.810;2023-11-22T14:18:21;869.38;;;589.03;;
4428;SDS011;2227;47.810;8.810;2023-11-22T14:20:48;868.50;;;584.65;;
4428;SDS011;2227;47.810;8.810;2023-11-22T14:23:14;870.30;;;591.40;;
4428;SDS011;2227;47.810;8.810;2023-11-22T14:25:42;868.75;;;583.15;;
4428;SDS011;2227;47.810;8.810;2023-11-22T14:28:08;869.93;;;586.77;;
4428;SDS011;2227;47.810;8.810;2023-11-22T14:30:36;869.17;;;579.10;;
4428;SDS011;2227;47.810;8.810;2023-11-22T14:33:03;869.08;;;580.20;;
4428;SDS011;2227;47.810;8.810;2023-11-22T14:35:34;871.03;;;590.13;;
4428;SDS011;2227;47.810;8.810;2023-11-22T14:38:02;869.92;;;584.05;;
4428;SDS011;2227;47.810;8.810;2023-11-22T14:40:32;871.38;;;588.42;;
4428;SDS011;2227;47.810;8.810;2023-11-22T14:42:59;869.45;;;580.35;;
4428;SDS011;2227;47.810;8.810;2023-11-22T14:45:29;868.15;;;581.40;;
4428;SDS011;2227;47.810;8.810;2023-11-22T14:47:57;870.15;;;580.10;;
4428;SDS011;2227;47.810;8.810;2023-11-22T14:50:24;869.33;;;580.15;;
4428;SDS011;2227;47.810;8.810;2023-11-22T14:52:54;869.45;;;581.15;;
4428;SDS011;2227;47.810;8.810;2023-11-22T14:55:22;868.92;;;578.72;;
4428;SDS011;2227;47.810;8.810;2023-11-22T14:57:52;869.72;;;579.50;;
4428;SDS011;2227;47.810;8.810;2023-11-22T15:00:23;870.28;;;583.67;;
4428;SDS011;2227;47.810;8.810;2023-11-22T15:02:51;868.63;;;580.25;;
4428;SDS011;2227;47.810;8.810;2023-11-22T15:05:20;870.92;;;583.60;;
4428;SDS011;2227;47.810;8.810;2023-11-22T15:07:48;870.20;;;579.30;;
4428;SDS011;2227;47.810;8.810;2023-11-22T15:10:21;868.75;;;574.30;;
4428;SDS011;2227;47.810;8.810;2023-11-22T15:12:48;867.07;;;573.40;;
4428;SDS011;2227;47.810;8.810;2023-11-22T15:15:16;869.47;;;580.92;;
4428;SDS011;2227;47.810;8.810;2023-11-22T15:17:44;868.70;;;574.30;;
4428;SDS011;2227;47.810;8.810;2023-11-22T15:20:11;867.53;;;573.40;;
4428;SDS011;2227;47.810;8.810;2023-11-22T15:22:41;868.50;;;577.77;;
4428;SDS011;2227;47.810;8.810;2023-11-22T15:25:08;870.30;;;574.85;;
4428;SDS011;2227;47.810;8.810;2023-11-22T15:27:41;868.72;;;576.15;;
4428;SDS011;2227;47.810;8.810;2023-11-22T15:30:08;867.65;;;571.70;;
4428;SDS011;2227;47.810;8.810;2023-11-22T15:32:38;868.05;;;570.30;;
4428;SDS011;2227;47.810;8.810;2023-11-22T15:35:05;869.30;;;580.53;;
4428;SDS011;2227;47.810;8.810;2023-11-22T15:37:32;867.90;;;570.33;;
4428;SDS011;2227;47.810;8.810;2023-11-22T15:39:59;868.30;;;570.25;;
4428;SDS011;2227;47.810;8.810;2023-11-22T15:42:27;868.17;;;574.92;;
4428;SDS011;2227;47.810;8.810;2023-11-22T15:44:55;868.53;;;575.65;;
4428;SDS011;2227;47.810;8.810;2023-11-22T15:47:22;869.90;;;575.83;;
4428;SDS011;2227;47.810;8.810;2023-11-22T15:49:49;869.70;;;575.60;;
4428;SDS011;2227;47.810;8.810;2023-11-22T15:52:17;868.40;;;574.85;;
4428;SDS011;2227;47.810;8.810;2023-11-22T15:54:43;870.33;;;577.97;;
4428;SDS011;2227;47.810;8.810;2023-11-22T15:57:10;867.27;;;570.13;;
4428;SDS011;2227;47.810;8.810;2023-11-22T15:59:37;867.40;;;571.47;;
4428;SDS011;2227;47.810;8.810;2023-11-22T16:02:04;869.10;;;570.10;;
4428;SDS011;2227;47.810;8.810;2023-11-22T16:04:33;866.97;;;569.63;;
4428;SDS011;2227;47.810;8.810;2023-11-22T16:07:00;868.00;;;573.65;;
4428;SDS011;2227;47.810;8.810;2023-11-22T16:09:28;869.80;;;579.17;;
4428;SDS011;2227;47.810;8.810;2023-11-22T16:11:55;868.80;;;571.70;;
4428;SDS011;2227;47.810;8.810;2023-11-22T16:14:23;868.08;;;570.38;;
4428;SDS011;2227;47.810;8.810;2023-11-22T16:16:49;867.63;;;568.15;;
4428;SDS011;2227;47.810;8.810;2023-11-22T16:19:16;867.50;;;572.65;;
4428;SDS011;2227;47.810;8.810;2023-11-22T16:21:43;867.15;;;570.45;;
4428;SDS011;2227;47.810;8.810;2023-11-22T16:24:10;868.10;;;574.22;;
4428;SDS011;2227;47.810;8.810;2023-11-22T16:26:37;868.85;;;571.35;;
4428;SDS011;2227;47.810;8.810;2023-11-22T16:29:04;869.78;;;579.67;;
4428;SDS011;2227;47.810;8.810;2023-11-22T16:31:31;867.85;;;570.78;;
4428;SDS011;2227;47.810;8.810;2023-11-22T16:33:57;866.53;;;570.38;;
4428;SDS011;2227;47.810;8.810;2023-11-22T16:36:25;867.80;;;573.10;;
4428;SDS011;2227;47.810;8.810;2023-11-22T16:38:53;866.65;;;567.22;;
4428;SDS011;2227;47.810;8.810;2023-11-22T16:41:21;866.80;;;565.83;;
4428;SDS011;2227;47.810;8.810;2023-11-22T16:43:50;865.47;;;565.88;;
4428;SDS011;2227;47.810;8.810;2023-11-22T16:46:17;867.33;;;571.72;;
4428;SDS011;2227;47.810;8.810;2023-11-22T16:48:44;866.47;;;568.55;;
4428;SDS011;2227;47.810;8.810;2023-11-22T16:53:41;866.30;;;573.60;;
4428;SDS011;2227;47.810;8.810;2023-11-22T16:58:34;867.28;;;574.65;;
4428;SDS011;2227;47.810;8.810;2023-11-22T17:03:29;869.10;;;570.30;;
4428;SDS011;2227;47.810;8.810;2023-11-22T17:05:57;868.58;;;563.03;;
4428;SDS011;2227;47.810;8.810;2023-11-22T17:08:24;867.45;;;562.35;;
4428;SDS011;2227;47.810;8.810;2023-11-22T17:10:50;867.15;;;563.03;;
4428;SDS011;2227;47.810;8.810;2023-11-22T17:13:17;866.70;;;561.85;;
4428;SDS011;2227;47.810;8.810;2023-11-22T17:18:11;866.97;;;562.80;;
4428;SDS011;2227;47.810;8.810;2023-11-22T17:20:39;868.60;;;568.45;;
4428;SDS011;2227;47.810;8.810;2023-11-22T17:23:07;868.50;;;564.60;;
4428;SDS011;2227;47.810;8.810;2023-11-22T17:25:34;868.50;;;567.30;;
4428;SDS011;2227;47.810;8.810;2023-11-22T17:28:01;869.00;;;563.60;;
4428;SDS011;2227;47.810;8.810;2023-11-22T17:32:54;869.40;;;566.50;;
4428;SDS011;2227;47.810;8.810;2023-11-22T17:35:21;868.20;;;563.30;;
4428;SDS011;2227;47.810;8.810;2023-11-22T17:37:50;868.25;;;559.78;;
4428;SDS011;2227;47.810;8.810;2023-11-22T17:40:20;867.25;;;562.47;;
4428;SDS011;2227;47.810;8.810;2023-11-22T17:42:47;865.47;;;560.20;;
4428;SDS011;2227;47.810;8.810;2023-11-22T17:45:13;865.63;;;559.00;;
4428;SDS011;2227;47.810;8.810;2023-11-22T17:47:42;866.30;;;558.80;;
4428;SDS011;2227;47.810;8.810;2023-11-22T17:50:09;866.15;;;558.35;;
4428;SDS011;2227;47.810;8.810;2023-11-22T17:52:37;866.25;;;560.75;;
4428;SDS011;2227;47.810;8.810;2023-11-22T17:55:04;867.30;;;566.72;;
4428;SDS011;2227;47.810;8.810;2023-11-22T17:57:31;866.58;;;562.20;;
4428;SDS011;2227;47.810;8.810;2023-11-22T17:59:58;866.25;;;566.60;;
4428;SDS011;2227;47.810;8.810;2023-11-22T18:02:26;867.60;;;568.30;;
4428;SDS011;2227;47.810;8.810;2023-11-22T18:04:53;868.33;;;565.13;;
4428;SDS011;2227;47.810;8.810;2023-11-22T18:07:19;868.97;;;567.97;;
4428;SDS011;2227;47.810;8.810;2023-11-22T18:09:49;866.25;;;566.50;;
4428;SDS011;2227;47.810;8.810;2023-11-22T18:12:16;864.77;;;561.20;;
4428;SDS011;2227;47.810;8.810;2023-11-22T18:14:44;865.63;;;567.00;;
4428;SDS011;2227;47.810;8.810;2023-11-22T18:17:12;865.30;;;565.30;;
4428;SDS011;2227;47.810;8.810;2023-11-22T18:22:05;865.97;;;567.92;;
4428;SDS011;2227;47.810;8.810;2023-11-22T18:24:32;864.80;;;565.92;;
4428;SDS011;2227;47.810;8.810;2023-11-22T18:26:59;864.93;;;565.20;;
4428;SDS011;2227;47.810;8.810;2023-11-22T18:29:26;863.85;;;563.65;;
4428;SDS011;2227;47.810;8.810;2023-11-22T18:34:25;864.00;;;568.00;;
4428;SDS011;2227;47.810;8.810;2023-11-22T18:36:59;864.00;;;564.95;;
4428;SDS011;2227;47.810;8.810;2023-11-22T18:39:29;863.78;;;560.78;;
4428;SDS011;2227;47.810;8.810;2023-11-22T18:41:56;863.40;;;563.70;;
4428;SDS011;2227;47.810;8.810;2023-11-22T18:44:23;863.00;;;561.63;;
4428;SDS011;2227;47.810;8.810;2023-11-22T18:46:50;863.05;;;561.17;;
4428;SDS011;2227;47.810;8.810;2023-11-22T18:49:16;864.60;;;567.70;;
4428;SDS011;2227;47.810;8.810;2023-11-22T18:51:46;865.08;;;568.67;;
4428;SDS011;2227;47.810;8.810;2023-11-22T18:54:12;864.83;;;564.08;;
4428;SDS011;2227;47.810;8.810;2023-11-22T18:56:39;864.08;;;571.42;;
4428;SDS011;2227;47.810;8.810;2023-11-22T18:59:10;863.75;;;569.92;;
4428;SDS011;2227;47.810;8.810;2023-11-22T19:01:37;864.88;;;570.95;;
4428;SDS011;2227;47.810;8.810;2023-11-22T19:04:04;863.95;;;569.28;;
4428;SDS011;2227;47.810;8.810;2023-11-22T19:06:35;863.50;;;566.33;;
4428;SDS011;2227;47.810;8.810;2023-11-22T19:09:02;862.90;;;560.58;;
4428;SDS011;2227;47.810;8.810;2023-11-22T19:11:33;863.33;;;562.20;;
4428;SDS011;2227;47.810;8.810;2023-11-22T19:14:00;863.78;;;564.20;;
4428;SDS011;2227;47.810;8.810;2023-11-22T19:16:27;863.47;;;562.70;;
4428;SDS011;2227;47.810;8.810;2023-11-22T19:18:53;862.80;;;562.15;;
4428;SDS011;2227;47.810;8.810;2023-11-22T19:21:20;863.35;;;565.70;;
4428;SDS011;2227;47.810;8.810;2023-11-22T19:23:49;862.25;;;555.58;;
4428;SDS011;2227;47.810;8.810;2023-11-22T19:26:23;863.63;;;562.10;;
4428;SDS011;2227;47.810;8.810;2023-11-22T19:28:50;863.42;;;560.58;;
4428;SDS011;2227;47.810;8.810;2023-11-22T19:36:24;861.35;;;560.55;;
4428;SDS011;2227;47.810;8.810;2023-11-22T19:38:52;864.30;;;560.10;;
4428;SDS011;2227;47.810;8.810;2023-11-22T19:41:22;861.53;;;561.92;;
4428;SDS011;2227;47.810;8.810;2023-11-22T19:43:53;863.03;;;562.43;;
4428;SDS011;2227;47.810;8.810;2023-11-22T19:46:20;863.15;;;566.03;;
4428;SDS011;2227;47.810;8.810;2023-11-22T19:51:14;862.65;;;559.35;;
4428;SDS011;2227;47.810;8.810;2023-11-22T19:53:41;864.13;;;563.60;;
4428;SDS011;2227;47.810;8.810;2023-11-22T19:56:08;863.70;;;565.17;;
4428;SDS011;2227;47.810;8.810;2023-11-22T19:58:35;866.10;;;570.30;;